createdAt,value
2022-07-26T00:02:03.613Z,110.40
2022-07-26T00:04:31.740Z,107.50
2022-07-26T00:06:59.693Z,107.00
2022-07-26T00:09:27.461Z,178.80
2022-07-26T00:11:56.873Z,187.43
2022-07-26T00:14:25.061Z,240.83
2022-07-26T00:16:53.027Z,165.03
2022-07-26T00:19:20.885Z,219.07
2022-07-26T00:22:08.726Z,229.07
2022-07-26T00:24:36.504Z,135.13
2022-07-26T00:27:05.776Z,190.77
2022-07-26T00:29:33.590Z,115.87
2022-07-26T00:32:01.509Z,169.87
2022-07-26T00:34:29.393Z,260.27
2022-07-26T00:36:57.211Z,231.87
2022-07-26T00:39:25.335Z,195.97
2022-07-26T00:41:53.182Z,226.60
2022-07-26T00:44:22.600Z,229.00
2022-07-26T00:46:50.352Z,231.93
2022-07-26T00:49:18.171Z,247.53
2022-07-26T00:51:46.541Z,249.57
2022-07-26T00:54:14.565Z,243.87
2022-07-26T00:56:42.310Z,232.00
2022-07-26T00:59:10.540Z,237.50
2022-07-26T01:01:40.016Z,209.30
2022-07-26T01:04:08.214Z,195.37
2022-07-26T01:06:36.482Z,194.60
2022-07-26T01:09:05.400Z,201.77
2022-07-26T01:11:33.207Z,222.17
2022-07-26T01:14:00.941Z,198.63
2022-07-26T01:16:28.838Z,189.60
2022-07-26T01:18:58.035Z,197.10
2022-07-26T01:21:31.006Z,300.95
2022-07-26T01:23:58.766Z,203.60
2022-07-26T01:26:26.612Z,180.87
2022-07-26T01:28:54.358Z,178.43
2022-07-26T01:31:22.261Z,170.97
2022-07-26T01:33:50.361Z,177.90
2022-07-26T01:36:18.445Z,257.70
2022-07-26T01:38:47.693Z,221.23
2022-07-26T01:41:15.584Z,237.60
2022-07-26T01:43:43.665Z,226.60
2022-07-26T01:46:13.531Z,220.17
2022-07-26T01:48:41.563Z,222.87
2022-07-26T01:51:09.364Z,235.60
2022-07-26T01:53:37.407Z,249.70
2022-07-26T01:56:07.070Z,254.83
2022-07-26T01:58:34.875Z,256.17
2022-07-26T02:01:02.649Z,240.83
2022-07-26T02:03:30.403Z,205.10
2022-07-26T02:05:58.248Z,141.43
2022-07-26T02:08:26.091Z,107.87
2022-07-26T02:11:04.038Z,136.87
2022-07-26T02:13:52.900Z,112.90
2022-07-26T02:16:21.099Z,109.50
2022-07-26T02:18:48.865Z,116.23
2022-07-26T02:21:16.636Z,112.67
2022-07-26T02:23:44.489Z,110.13
2022-07-26T02:26:12.215Z,111.03
2022-07-26T02:28:39.989Z,108.00
2022-07-26T02:31:09.070Z,103.20
2022-07-26T02:33:39.451Z,108.70
2022-07-26T02:36:07.339Z,107.67
2022-07-26T02:38:35.085Z,105.40
2022-07-26T02:41:02.860Z,107.07
2022-07-26T02:43:32.287Z,104.27
2022-07-26T02:46:02.287Z,116.87
2022-07-26T02:48:32.176Z,109.60
2022-07-26T02:51:00.225Z,107.60
2022-07-26T02:53:28.094Z,114.13
2022-07-26T02:55:55.835Z,111.37
2022-07-26T02:58:25.019Z,107.77
2022-07-26T03:00:52.770Z,107.40
2022-07-26T03:03:20.510Z,107.43
2022-07-26T03:05:49.670Z,106.57
2022-07-26T03:08:17.677Z,106.77
2022-07-26T03:10:48.026Z,107.23
2022-07-26T03:13:16.176Z,109.40
2022-07-26T03:15:44.011Z,107.03
2022-07-26T03:18:14.677Z,111.50
2022-07-26T03:20:42.414Z,111.97
2022-07-26T03:23:11.518Z,108.43
2022-07-26T03:25:39.535Z,110.17
2022-07-26T03:28:07.300Z,105.43
2022-07-26T03:30:35.416Z,111.87
2022-07-26T03:33:03.495Z,104.03
2022-07-26T03:35:31.236Z,109.43
2022-07-26T03:38:04.752Z,105.30
2022-07-26T03:40:33.848Z,105.03
2022-07-26T03:43:01.604Z,107.00
2022-07-26T03:45:30.716Z,111.20
2022-07-26T03:47:58.486Z,114.27
2022-07-26T03:50:26.204Z,112.60
2022-07-26T03:52:53.969Z,109.17
2022-07-26T03:55:39.274Z,108.70
2022-07-26T03:58:08.451Z,109.40
2022-07-26T04:00:36.291Z,289.88
2022-07-26T04:03:04.104Z,167.73
2022-07-26T04:05:31.894Z,117.33
2022-07-26T04:07:59.658Z,117.10
2022-07-26T04:10:27.981Z,113.30
2022-07-26T04:12:55.735Z,122.70
2022-07-26T04:15:24.815Z,131.23
2022-07-26T04:17:52.573Z,124.67
2022-07-26T04:20:20.336Z,145.30
2022-07-26T04:22:48.211Z,153.67
2022-07-26T04:25:16.153Z,122.73
2022-07-26T04:27:43.915Z,133.13
2022-07-26T04:30:15.082Z,137.80
2022-07-26T04:32:46.430Z,140.90
2022-07-26T04:35:15.279Z,151.07
2022-07-26T04:37:43.649Z,127.47
2022-07-26T04:40:12.999Z,130.53
2022-07-26T04:42:40.957Z,132.57
2022-07-26T04:45:10.836Z,144.70
2022-07-26T04:47:38.639Z,115.03
2022-07-26T04:50:09.565Z,111.17
2022-07-26T04:52:37.387Z,117.90
2022-07-26T04:55:06.164Z,112.00
2022-07-26T04:57:34.319Z,106.93
2022-07-26T05:00:20.806Z,109.70
2022-07-26T05:02:50.352Z,109.17
2022-07-26T05:05:19.506Z,115.20
2022-07-26T05:07:50.380Z,107.43
2022-07-26T05:10:20.468Z,112.97
2022-07-26T05:12:49.181Z,104.87
2022-07-26T05:15:17.390Z,112.97
2022-07-26T05:17:45.364Z,106.60
2022-07-26T05:20:15.259Z,108.07
2022-07-26T05:22:45.350Z,119.33
2022-07-26T05:25:13.096Z,131.17
2022-07-26T05:27:41.703Z,124.77
2022-07-26T05:30:11.091Z,128.33
2022-07-26T05:32:38.884Z,131.57
2022-07-26T05:35:07.722Z,124.13
2022-07-26T05:37:35.582Z,148.73
2022-07-26T05:40:06.354Z,142.13
2022-07-26T05:42:34.240Z,161.47
2022-07-26T05:45:02.101Z,155.23
2022-07-26T05:47:30.735Z,159.97
2022-07-26T05:49:58.471Z,156.53
2022-07-26T05:52:26.278Z,159.23
2022-07-26T05:54:54.063Z,165.97
2022-07-26T05:57:23.183Z,169.50
2022-07-26T05:59:51.407Z,189.50
2022-07-26T06:02:19.300Z,181.50
2022-07-26T06:04:47.547Z,174.03
2022-07-26T06:07:15.679Z,181.07
2022-07-26T06:09:43.612Z,126.43
2022-07-26T06:12:11.612Z,181.17
2022-07-26T06:14:40.745Z,136.83
2022-07-26T06:17:08.551Z,181.60
2022-07-26T06:19:36.720Z,156.23
2022-07-26T06:22:04.699Z,130.27
2022-07-26T06:24:32.595Z,122.33
2022-07-26T06:27:05.209Z,148.70
2022-07-26T06:29:33.606Z,183.03
2022-07-26T06:32:02.995Z,133.53
2022-07-26T06:34:30.879Z,109.97
2022-07-26T06:36:58.968Z,110.80
2022-07-26T06:39:27.035Z,114.53
2022-07-26T06:41:54.769Z,107.90
2022-07-26T06:44:23.345Z,117.47
2022-07-26T06:46:51.193Z,107.37
2022-07-26T06:49:22.703Z,106.83
2022-07-26T06:51:50.825Z,106.03
2022-07-26T06:54:19.661Z,101.80
2022-07-26T06:56:47.491Z,105.50
2022-07-26T06:59:15.239Z,112.40
2022-07-26T07:01:51.665Z,100.87
2022-07-26T07:04:29.337Z,105.67
2022-07-26T07:07:02.282Z,99.73
2022-07-26T07:09:33.571Z,99.60
2022-07-26T07:12:09.501Z,107.20
2022-07-26T07:14:38.993Z,98.10
2022-07-26T07:17:10.449Z,99.73
2022-07-26T07:19:42.311Z,168.15
2022-07-26T07:22:12.065Z,108.33
2022-07-26T07:24:40.699Z,114.30
2022-07-26T07:27:08.913Z,116.87
2022-07-26T07:29:38.971Z,118.00
2022-07-26T07:32:18.469Z,124.05
2022-07-26T07:34:49.528Z,133.10
2022-07-26T07:37:17.316Z,106.57
2022-07-26T07:39:50.042Z,109.07
2022-07-26T07:42:19.119Z,103.07
2022-07-26T07:44:47.054Z,100.87
2022-07-26T07:47:15.122Z,101.90
2022-07-26T07:49:43.018Z,101.20
2022-07-26T07:52:12.106Z,102.40
2022-07-26T07:54:39.975Z,122.53
2022-07-26T07:57:10.265Z,102.40
2022-07-26T07:59:39.295Z,100.93
2022-07-26T08:02:07.763Z,97.57
2022-07-26T08:04:35.670Z,99.67
2022-07-26T08:07:03.515Z,100.00
2022-07-26T08:09:33.850Z,102.03
2022-07-26T08:12:01.925Z,103.50
2022-07-26T08:14:29.928Z,102.10
2022-07-26T08:16:57.745Z,99.47
2022-07-26T08:19:27.577Z,101.70
2022-07-26T08:22:10.020Z,97.77
2022-07-26T08:24:40.480Z,94.53
2022-07-26T08:27:08.302Z,94.73
2022-07-26T08:29:36.105Z,95.77
2022-07-26T08:32:03.920Z,101.77
2022-07-26T08:34:31.784Z,98.17
2022-07-26T08:37:17.435Z,90.30
2022-07-26T08:39:47.622Z,94.73
2022-07-26T08:42:16.483Z,92.47
2022-07-26T08:44:45.610Z,94.63
2022-07-26T08:47:14.290Z,93.60
2022-07-26T08:49:42.847Z,83.63
2022-07-26T08:52:11.803Z,83.00
2022-07-26T08:54:45.947Z,82.20
2022-07-26T08:57:14.016Z,84.60
2022-07-26T08:59:42.427Z,82.10
2022-07-26T09:02:12.447Z,95.37
2022-07-26T09:04:44.727Z,80.47
2022-07-26T09:07:15.742Z,79.87
2022-07-26T09:10:00.481Z,78.77
2022-07-26T09:12:29.772Z,77.67
2022-07-26T09:14:58.028Z,80.83
2022-07-26T09:17:37.686Z,72.67
2022-07-26T09:20:09.307Z,76.47
2022-07-26T09:22:37.759Z,72.87
2022-07-26T09:25:21.371Z,71.87
2022-07-26T09:27:49.159Z,73.67
2022-07-26T09:30:17.216Z,73.30
2022-07-26T09:32:59.040Z,73.40
2022-07-26T09:38:15.931Z,72.90
2022-07-26T09:40:46.792Z,75.93
2022-07-26T09:43:24.185Z,79.93
2022-07-26T09:46:05.662Z,79.40
2022-07-26T09:49:06.972Z,75.87
2022-07-26T09:51:39.546Z,76.27
2022-07-26T09:54:07.849Z,81.93
2022-07-26T09:56:48.849Z,78.17
2022-07-26T09:59:18.704Z,74.47
2022-07-26T10:01:46.869Z,76.70
2022-07-26T10:04:15.128Z,80.53
2022-07-26T10:06:43.619Z,75.90
2022-07-26T10:09:11.808Z,72.50
2022-07-26T10:11:43.296Z,71.30
2022-07-26T10:14:43.170Z,71.20
2022-07-26T10:17:50.762Z,71.47
2022-07-26T10:20:41.607Z,72.90
2022-07-26T10:23:47.921Z,66.00
2022-07-26T10:26:40.655Z,65.10
2022-07-26T10:29:26.258Z,70.03
2022-07-26T10:32:21.085Z,67.77
2022-07-26T10:34:50.629Z,71.60
2022-07-26T10:37:30.022Z,71.93
2022-07-26T10:40:18.124Z,87.23
2022-07-26T10:42:46.549Z,101.37
2022-07-26T10:45:20.669Z,136.70
2022-07-26T10:48:15.946Z,137.17
2022-07-26T10:50:45.429Z,142.57
2022-07-26T10:53:19.400Z,157.90
2022-07-26T10:55:50.178Z,234.73
2022-07-26T10:58:18.165Z,229.37
2022-07-26T11:00:57.494Z,231.53
2022-07-26T11:03:27.081Z,250.47
2022-07-26T11:05:56.862Z,230.83
2022-07-26T11:08:31.061Z,143.27
2022-07-26T11:10:58.868Z,606.50
2022-07-26T11:13:26.590Z,154.53
2022-07-26T11:16:01.494Z,119.33
2022-07-26T11:18:32.610Z,349.33
2022-07-26T11:21:10.506Z,218.43
2022-07-26T11:23:39.887Z,169.80
2022-07-26T11:26:10.804Z,107.27
2022-07-26T11:28:54.350Z,109.57
2022-07-26T11:31:52.030Z,139.87
2022-07-26T11:34:20.373Z,105.97
2022-07-26T11:36:48.774Z,105.90
2022-07-26T11:39:21.523Z,123.63
2022-07-26T11:41:52.280Z,124.83
2022-07-26T11:44:21.733Z,111.90
2022-07-26T11:46:50.906Z,187.30
2022-07-26T11:49:23.091Z,132.43
2022-07-26T11:52:00.769Z,139.33
2022-07-26T11:54:31.103Z,149.77
2022-07-26T11:57:00.370Z,198.23
2022-07-26T11:59:30.718Z,172.43
2022-07-26T12:02:00.173Z,203.27
2022-07-26T12:04:31.465Z,181.50
2022-07-26T12:07:00.505Z,118.30
2022-07-26T12:09:33.855Z,141.00
2022-07-26T12:12:02.223Z,196.83
2022-07-26T12:14:31.774Z,168.70
2022-07-26T12:16:59.831Z,245.57
2022-07-26T12:19:30.902Z,225.77
2022-07-26T12:22:08.332Z,187.03
2022-07-26T12:24:46.189Z,226.07
2022-07-26T12:27:16.963Z,261.23
2022-07-26T12:29:45.984Z,212.87
2022-07-26T12:32:16.810Z,242.77
2022-07-26T12:34:58.364Z,228.43
2022-07-26T12:37:37.694Z,217.63
2022-07-26T12:40:10.597Z,278.83
2022-07-26T12:42:40.812Z,208.70
2022-07-26T12:45:10.734Z,155.00
2022-07-26T12:47:40.436Z,124.53
2022-07-26T12:50:11.516Z,90.23
2022-07-26T12:52:40.351Z,99.57
2022-07-26T12:55:11.489Z,89.50
2022-07-26T12:57:41.376Z,96.87
2022-07-26T13:00:15.267Z,96.33
2022-07-26T13:02:44.401Z,98.60
2022-07-26T13:05:14.176Z,94.90
2022-07-26T13:07:42.597Z,97.33
2022-07-26T13:13:00.034Z,102.93
2022-07-26T13:15:36.605Z,102.83
2022-07-26T13:18:06.725Z,105.97
2022-07-26T13:20:37.712Z,96.90
2022-07-26T13:23:05.924Z,218.43
2022-07-26T13:25:38.455Z,101.90
2022-07-26T13:28:08.158Z,118.63
2022-07-26T13:30:37.564Z,115.87
2022-07-26T13:33:05.421Z,95.80
2022-07-26T13:35:33.423Z,127.80
2022-07-26T13:38:03.054Z,108.53
2022-07-26T13:40:32.018Z,92.70
2022-07-26T13:43:00.124Z,97.53
2022-07-26T13:45:29.148Z,97.33
2022-07-26T13:47:57.519Z,99.20
2022-07-26T13:50:27.641Z,97.80
2022-07-26T13:52:55.983Z,96.00
2022-07-26T13:55:25.459Z,94.17
2022-07-26T13:57:57.569Z,97.57
2022-07-26T14:00:27.680Z,91.17
2022-07-26T14:02:56.712Z,94.20
2022-07-26T14:05:24.631Z,94.47
2022-07-26T14:07:52.529Z,92.77
2022-07-26T14:10:20.882Z,93.37
2022-07-26T14:12:50.689Z,93.17
2022-07-26T14:15:22.577Z,101.90
2022-07-26T14:17:51.769Z,312.57
2022-07-26T14:20:20.032Z,121.13
2022-07-26T14:22:48.597Z,142.73
2022-07-26T14:25:16.399Z,108.03
2022-07-26T14:27:44.156Z,107.53
2022-07-26T14:30:14.563Z,142.23
2022-07-26T14:32:42.432Z,107.17
2022-07-26T14:35:10.748Z,110.60
2022-07-26T14:37:41.419Z,141.80
2022-07-26T14:40:15.506Z,135.73
2022-07-26T14:42:43.693Z,211.30
2022-07-26T14:45:13.447Z,188.47
2022-07-26T14:47:41.241Z,234.27
2022-07-26T14:50:11.046Z,223.10
2022-07-26T14:52:40.093Z,185.33
2022-07-26T14:55:08.917Z,208.23
2022-07-26T14:57:39.233Z,171.63
2022-07-26T15:00:09.662Z,126.70
2022-07-26T15:02:41.209Z,116.90
2022-07-26T15:05:09.821Z,108.83
2022-07-26T15:07:37.641Z,113.70
2022-07-26T15:10:06.967Z,100.67
2022-07-26T15:12:35.005Z,106.83
2022-07-26T15:15:02.815Z,104.70
2022-07-26T15:17:31.001Z,109.53
2022-07-26T15:20:00.142Z,95.70
2022-07-26T15:22:27.927Z,97.30
2022-07-26T15:24:55.673Z,102.43
2022-07-26T15:27:23.471Z,167.57
2022-07-26T15:29:51.327Z,227.60
2022-07-26T15:32:20.706Z,140.43
2022-07-26T15:34:48.514Z,111.27
2022-07-26T15:37:18.796Z,111.10
2022-07-26T15:39:46.565Z,117.23
2022-07-26T15:42:15.683Z,129.15
2022-07-26T15:44:43.737Z,113.73
2022-07-26T15:47:12.071Z,111.57
2022-07-26T15:49:40.921Z,118.33
2022-07-26T15:52:11.418Z,127.23
2022-07-26T15:54:42.506Z,188.77
2022-07-26T15:57:10.434Z,237.93
2022-07-26T15:59:38.194Z,134.47
2022-07-26T16:02:07.874Z,190.70
2022-07-26T16:04:35.951Z,177.00
2022-07-26T16:07:03.846Z,194.60
2022-07-26T16:09:31.598Z,118.30
2022-07-26T16:12:05.607Z,92.23
2022-07-26T16:14:33.913Z,90.70
2022-07-26T16:17:01.878Z,96.63
2022-07-26T16:19:29.823Z,92.77
2022-07-26T16:21:57.635Z,97.77
2022-07-26T16:24:25.809Z,97.13
2022-07-26T16:26:53.829Z,95.87
2022-07-26T16:29:23.298Z,92.50
2022-07-26T16:31:51.143Z,93.10
2022-07-26T16:34:18.964Z,92.67
2022-07-26T16:36:46.733Z,143.18
2022-07-26T16:39:15.084Z,108.83
2022-07-26T16:41:43.288Z,97.97
2022-07-26T16:44:11.092Z,98.10
2022-07-26T16:46:40.309Z,101.90
2022-07-26T16:49:08.350Z,119.47
2022-07-26T16:51:36.469Z,105.00
2022-07-26T16:54:04.571Z,98.67
2022-07-26T16:56:32.390Z,115.43
2022-07-26T16:59:00.210Z,107.87
2022-07-26T17:01:28.073Z,136.37
2022-07-26T17:03:57.228Z,154.87
2022-07-26T17:06:24.952Z,137.27
2022-07-26T17:08:52.672Z,217.10
2022-07-26T17:11:20.445Z,218.33
2022-07-26T17:13:48.270Z,219.63
2022-07-26T17:16:16.019Z,220.83
2022-07-26T17:18:52.032Z,222.17
2022-07-26T17:21:21.212Z,195.97
2022-07-26T17:23:49.091Z,197.00
2022-07-26T17:26:17.422Z,152.93
2022-07-26T17:28:45.464Z,149.83
2022-07-26T17:31:13.325Z,122.20
2022-07-26T17:33:41.159Z,137.17
2022-07-26T17:36:23.139Z,146.33
2022-07-26T17:38:51.384Z,207.20
2022-07-26T17:41:20.299Z,212.93
2022-07-26T17:43:48.594Z,190.83
2022-07-26T17:46:16.685Z,142.53
2022-07-26T17:48:46.955Z,127.17
2022-07-26T17:51:14.824Z,133.97
2022-07-26T17:53:44.483Z,143.30
2022-07-26T17:56:12.478Z,138.47
2022-07-26T17:58:40.544Z,116.53
2022-07-26T18:01:08.463Z,101.63
2022-07-26T18:03:36.386Z,101.57
2022-07-26T18:06:04.216Z,104.67
2022-07-26T18:08:32.064Z,101.17
2022-07-26T18:11:02.773Z,101.17
2022-07-26T18:13:30.584Z,101.27
2022-07-26T18:16:01.791Z,100.10
2022-07-26T18:18:32.148Z,119.20
2022-07-26T18:20:59.911Z,104.53
2022-07-26T18:23:27.772Z,103.13
2022-07-26T18:25:57.908Z,100.17
2022-07-26T18:28:27.139Z,98.80
2022-07-26T18:30:55.005Z,95.07
2022-07-26T18:33:22.936Z,102.50
2022-07-26T18:35:50.740Z,101.40
2022-07-26T18:38:18.660Z,98.97
2022-07-26T18:40:46.497Z,103.13
2022-07-26T18:43:14.334Z,99.27
2022-07-26T18:45:43.459Z,101.23
2022-07-26T18:48:11.356Z,97.07
2022-07-26T18:50:39.861Z,94.23
2022-07-26T18:53:07.696Z,101.13
2022-07-26T18:55:35.447Z,99.00
2022-07-26T18:58:06.734Z,96.27
2022-07-26T19:00:35.072Z,99.70
2022-07-26T19:03:04.793Z,93.93
2022-07-26T19:05:35.400Z,90.47
2022-07-26T19:08:03.460Z,90.30
2022-07-26T19:10:31.366Z,90.13
2022-07-26T19:12:59.115Z,93.77
2022-07-26T19:15:27.063Z,95.20
2022-07-26T19:17:55.161Z,95.77
2022-07-26T19:20:24.392Z,100.17
2022-07-26T19:22:52.129Z,101.33
2022-07-26T19:25:19.916Z,246.48
2022-07-26T19:27:47.753Z,127.07
2022-07-26T19:30:15.563Z,103.97
2022-07-26T19:32:43.335Z,100.70
2022-07-26T19:35:11.409Z,96.97
2022-07-26T19:37:40.504Z,94.67
2022-07-26T19:40:09.525Z,93.40
2022-07-26T19:42:37.351Z,95.73
2022-07-26T19:45:06.306Z,99.17
2022-07-26T19:47:35.622Z,101.23
2022-07-26T19:50:03.961Z,101.90
2022-07-26T19:52:31.827Z,118.63
2022-07-26T19:55:00.953Z,141.03
2022-07-26T19:57:28.705Z,133.30
2022-07-26T19:59:56.760Z,158.57
2022-07-26T20:02:24.556Z,164.17
2022-07-26T20:04:52.468Z,177.70
2022-07-26T20:07:20.269Z,171.80
2022-07-26T20:09:49.973Z,198.93
2022-07-26T20:12:20.591Z,164.43
2022-07-26T20:14:48.872Z,179.80
2022-07-26T20:17:17.338Z,185.37
2022-07-26T20:19:45.317Z,177.93
2022-07-26T20:22:13.098Z,224.02
2022-07-26T20:24:40.923Z,157.73
2022-07-26T20:27:09.011Z,162.50
2022-07-26T20:29:38.100Z,174.20
2022-07-26T20:32:06.664Z,172.17
2022-07-26T20:34:34.954Z,181.27
2022-07-26T20:37:02.703Z,161.07
2022-07-26T20:39:30.522Z,154.73
2022-07-26T20:41:58.263Z,134.50
2022-07-26T20:44:29.003Z,109.63
2022-07-26T20:46:58.139Z,119.57
2022-07-26T20:49:25.999Z,124.57
2022-07-26T20:51:53.949Z,136.87
2022-07-26T20:54:21.967Z,136.83
2022-07-26T20:56:50.034Z,120.93
2022-07-26T20:59:17.819Z,110.13
2022-07-26T21:01:45.739Z,106.23
2022-07-26T21:04:14.942Z,110.87
2022-07-26T21:06:42.865Z,108.27
2022-07-26T21:09:11.100Z,113.10
2022-07-26T21:11:39.626Z,114.73
2022-07-26T21:14:07.554Z,112.07
2022-07-26T21:16:35.377Z,111.00
2022-07-26T21:19:03.723Z,104.60
2022-07-26T21:21:34.294Z,226.83
2022-07-26T21:24:02.232Z,106.93
2022-07-26T21:26:30.277Z,108.50
2022-07-26T21:28:58.036Z,107.77
2022-07-26T21:31:26.429Z,102.30
2022-07-26T21:33:54.299Z,99.50
2022-07-26T21:36:22.068Z,104.93
2022-07-26T21:38:51.297Z,102.17
2022-07-26T21:41:19.049Z,104.80
2022-07-26T21:43:46.811Z,101.80
2022-07-26T21:46:15.110Z,112.10
2022-07-26T21:48:43.191Z,105.47
2022-07-26T21:51:11.015Z,105.57
2022-07-26T21:53:38.807Z,106.77
2022-07-26T21:56:08.356Z,109.67
2022-07-26T21:58:37.154Z,107.07
2022-07-26T22:01:06.988Z,117.33
2022-07-26T22:03:36.852Z,128.97
2022-07-26T22:06:06.017Z,107.80
2022-07-26T22:08:34.490Z,108.83
2022-07-26T22:11:02.327Z,105.17
2022-07-26T22:13:31.865Z,120.87
2022-07-26T22:15:59.723Z,154.80
2022-07-26T22:18:27.729Z,150.60
2022-07-26T22:20:55.809Z,159.00
2022-07-26T22:23:29.787Z,147.97
2022-07-26T22:25:57.970Z,149.07
2022-07-26T22:28:25.972Z,151.43
2022-07-26T22:30:55.493Z,110.60
2022-07-26T22:33:24.213Z,125.03
2022-07-26T22:35:52.296Z,106.83
2022-07-26T22:38:20.192Z,98.80
2022-07-26T22:40:48.009Z,97.97
2022-07-26T22:43:16.058Z,87.93
2022-07-26T22:45:44.278Z,82.17
2022-07-26T22:48:13.602Z,85.67
2022-07-26T22:50:41.399Z,81.40
2022-07-26T22:53:09.351Z,83.13
2022-07-26T22:55:37.617Z,82.00
2022-07-26T22:58:05.529Z,83.77
2022-07-26T23:00:33.388Z,80.67
2022-07-26T23:03:01.245Z,79.97
2022-07-26T23:05:39.899Z,80.87
2022-07-26T23:08:45.043Z,83.13
2022-07-26T23:11:02.270Z,83.50
2022-07-26T23:13:30.051Z,85.43
2022-07-26T23:16:00.936Z,83.80
2022-07-26T23:18:29.769Z,78.87
2022-07-26T23:20:58.977Z,85.97
2022-07-26T23:23:29.561Z,84.20
2022-07-26T23:25:58.610Z,79.77
2022-07-26T23:28:36.644Z,81.07
2022-07-26T23:31:10.189Z,83.93
2022-07-26T23:33:52.129Z,80.37
2022-07-26T23:36:24.362Z,79.73
2022-07-26T23:38:52.335Z,80.00
2022-07-26T23:41:20.353Z,81.27
2022-07-26T23:43:48.466Z,80.50
2022-07-26T23:46:16.340Z,82.07
2022-07-26T23:48:44.251Z,81.87
2022-07-26T23:51:12.317Z,82.73
2022-07-26T23:53:41.567Z,85.07
2022-07-26T23:56:09.699Z,84.07
2022-07-26T23:58:37.482Z,81.77
